Time;durP1;ratioP1;P1;durP2;ratioP2;P2;SDS_P1;SDS_P2;PMS_P1;PMS_P2;Temp;Humidity;BMP_temperature;BMP_pressure;BME280_temperature;BME280_humidity;BME280_pressure;Samples;Min_cycle;Max_cycle;Signal;HPM_P1;HPM_P2
2022/04/22 00:01:16;;;;;;;5.13;2.15;;;;;;;;;;5046754;28;20111;-72
2022/04/22 00:03:42;;;;;;;5.70;2.10;;;;;;;;;;5045408;28;20060;-73
2022/04/22 00:06:08;;;;;;;7.78;2.72;;;;;;;;;;5042610;28;20033;-73
2022/04/22 00:08:34;;;;;;;5.72;2.60;;;;;;;;;;5037007;28;20072;-73
2022/04/22 00:13:45;;;;;;;8.68;2.70;;;;;;;;;;5041612;28;20251;-72
2022/04/22 00:16:11;;;;;;;6.97;2.45;;;;;;;;;;5034386;28;20045;-73
2022/04/22 00:18:38;;;;;;;9.85;2.72;;;;;;;;;;5040309;28;20041;-73
2022/04/22 00:21:04;;;;;;;6.78;2.10;;;;;;;;;;5045947;28;20086;-73
2022/04/22 00:23:30;;;;;;;6.25;2.28;;;;;;;;;;5034689;28;20068;-73
2022/04/22 00:25:58;;;;;;;5.68;2.40;;;;;;;;;;5039983;28;20065;-73
2022/04/22 00:28:24;;;;;;;6.20;2.17;;;;;;;;;;5035518;28;20029;-72
2022/04/22 00:30:50;;;;;;;6.50;2.20;;;;;;;;;;5035660;28;20057;-73
2022/04/22 00:33:17;;;;;;;4.20;2.10;;;;;;;;;;5039162;28;20040;-73
2022/04/22 00:35:44;;;;;;;7.70;2.17;;;;;;;;;;5036102;28;20033;-73
2022/04/22 00:38:10;;;;;;;6.60;2.53;;;;;;;;;;5036438;28;20112;-72
2022/04/22 00:40:36;;;;;;;6.95;2.30;;;;;;;;;;5038785;28;20524;-73
2022/04/22 00:43:22;;;;;;;11.25;3.00;;;;;;;;;;5041177;28;20034;-73
2022/04/22 00:45:48;;;;;;;4.75;2.45;;;;;;;;;;5039936;28;20446;-72
2022/04/22 00:48:15;;;;;;;5.78;2.13;;;;;;;;;;5048047;28;20112;-73
2022/04/22 00:50:41;;;;;;;7.25;2.38;;;;;;;;;;5039967;28;20044;-72
2022/04/22 00:53:07;;;;;;;9.45;2.40;;;;;;;;;;5042560;28;20561;-73
2022/04/22 00:55:34;;;;;;;7.05;2.15;;;;;;;;;;5032189;28;20123;-72
2022/04/22 00:58:00;;;;;;;8.52;2.80;;;;;;;;;;5043146;28;20079;-73
2022/04/22 01:00:26;;;;;;;7.47;2.67;;;;;;;;;;5040742;28;20378;-72
2022/04/22 01:02:52;;;;;;;8.45;2.40;;;;;;;;;;5042737;28;20752;-72
2022/04/22 01:10:48;;;;;;;7.07;2.88;;;;;;;;;;5036907;28;20037;-73
2022/04/22 01:13:15;;;;;;;6.50;2.83;;;;;;;;;;5047637;28;20037;-73
2022/04/22 01:15:42;;;;;;;11.85;4.00;;;;;;;;;;5048467;28;20043;-72
2022/04/22 01:18:09;;;;;;;9.02;4.47;;;;;;;;;;5054601;28;20393;-73
2022/04/22 01:20:35;;;;;;;10.40;4.78;;;;;;;;;;5048004;28;20039;-73
2022/04/22 01:23:01;;;;;;;10.07;4.53;;;;;;;;;;5043482;28;20029;-73
2022/04/22 01:25:27;;;;;;;13.38;4.20;;;;;;;;;;5038429;28;20386;-73
2022/04/22 01:27:53;;;;;;;10.27;3.72;;;;;;;;;;5031638;28;20034;-72
2022/04/22 01:30:20;;;;;;;8.27;3.83;;;;;;;;;;5038164;28;20033;-73
2022/04/22 01:32:50;;;;;;;8.98;3.92;;;;;;;;;;5036085;28;20049;-73
2022/04/22 01:35:16;;;;;;;9.88;5.00;;;;;;;;;;5038337;28;20119;-73
2022/04/22 01:37:43;;;;;;;10.27;5.18;;;;;;;;;;5041664;28;20119;-72
2022/04/22 01:40:09;;;;;;;13.43;4.47;;;;;;;;;;5034361;28;20037;-72
2022/04/22 01:42:35;;;;;;;13.15;5.80;;;;;;;;;;5042227;28;20032;-72
2022/04/22 01:45:01;;;;;;;14.65;7.28;;;;;;;;;;5032442;28;20111;-72
2022/04/22 01:47:29;;;;;;;11.93;5.72;;;;;;;;;;5041186;28;20033;-72
2022/04/22 01:49:55;;;;;;;15.75;5.85;;;;;;;;;;5037988;28;20421;-73
2022/04/22 01:52:21;;;;;;;12.82;5.15;;;;;;;;;;5037393;28;20042;-73
2022/04/22 01:54:50;;;;;;;12.85;5.55;;;;;;;;;;5038660;28;20044;-72
2022/04/22 01:57:16;;;;;;;14.02;5.57;;;;;;;;;;5037577;28;20071;-72
2022/04/22 01:59:44;;;;;;;14.10;6.68;;;;;;;;;;5042477;28;20033;-73
2022/04/22 02:02:10;;;;;;;12.30;6.13;;;;;;;;;;5042277;28;20033;-72
2022/04/22 02:04:36;;;;;;;13.60;5.28;;;;;;;;;;5039307;28;20166;-73
2022/04/22 02:07:02;;;;;;;11.77;5.95;;;;;;;;;;5036440;28;20040;-73
2022/04/22 02:09:28;;;;;;;13.25;5.75;;;;;;;;;;5046567;28;20036;-72
2022/04/22 02:11:54;;;;;;;17.27;6.15;;;;;;;;;;5038487;28;20037;-73
2022/04/22 02:14:20;;;;;;;14.88;6.38;;;;;;;;;;5036545;28;20505;-72
2022/04/22 02:16:46;;;;;;;12.85;5.68;;;;;;;;;;5036813;28;20037;-73
2022/04/22 02:19:12;;;;;;;15.63;5.68;;;;;;;;;;5044434;28;20037;-73
2022/04/22 02:21:38;;;;;;;9.77;4.85;;;;;;;;;;5039727;28;20040;-72
2022/04/22 02:24:05;;;;;;;10.90;4.95;;;;;;;;;;5042842;28;20722;-72
2022/04/22 02:28:31;;;;;;;10.15;4.45;;;;;;;;;;5041960;28;20060;-73
2022/04/22 02:29:17;;;;;;;11.63;4.75;;;;;;;;;;5036979;28;20083;-73
2022/04/22 02:31:43;;;;;;;10.82;5.05;;;;;;;;;;5032699;28;20037;-72
2022/04/22 02:34:09;;;;;;;14.55;5.28;;;;;;;;;;5040070;28;20425;-73
2022/04/22 02:36:35;;;;;;;13.13;5.10;;;;;;;;;;5033657;28;20041;-73
2022/04/22 02:39:01;;;;;;;11.02;4.72;;;;;;;;;;5036806;28;20087;-73
2022/04/22 02:46:57;;;;;;;9.85;4.78;;;;;;;;;;5034348;28;20046;-72
2022/04/22 02:49:23;;;;;;;12.07;5.07;;;;;;;;;;5039837;28;20041;-72
2022/04/22 02:51:49;;;;;;;9.73;4.15;;;;;;;;;;5032110;28;20422;-73
2022/04/22 02:54:15;;;;;;;13.32;4.72;;;;;;;;;;5029741;28;20103;-72
2022/04/22 02:56:41;;;;;;;13.13;5.45;;;;;;;;;;5039538;28;20416;-72
2022/04/22 02:59:07;;;;;;;11.52;4.22;;;;;;;;;;5042291;28;20075;-72
2022/04/22 03:01:34;;;;;;;10.57;4.47;;;;;;;;;;5039362;28;20033;-73
2022/04/22 03:04:00;;;;;;;9.82;4.35;;;;;;;;;;5044230;28;20053;-73
2022/04/22 03:06:26;;;;;;;12.85;4.90;;;;;;;;;;5038188;28;20113;-73
2022/04/22 03:08:55;;;;;;;12.15;4.82;;;;;;;;;;5040069;28;20125;-73
2022/04/22 03:11:21;;;;;;;14.07;5.55;;;;;;;;;;5045407;28;20033;-73
2022/04/22 03:13:51;;;;;;;9.13;4.03;;;;;;;;;;5039892;28;20033;-72
2022/04/22 03:16:18;;;;;;;11.70;4.75;;;;;;;;;;5041867;28;20064;-73
2022/04/22 03:18:44;;;;;;;13.68;4.90;;;;;;;;;;5043154;28;20095;-73
2022/04/22 03:21:10;;;;;;;10.85;4.53;;;;;;;;;;5033890;28;20040;-72
2022/04/22 03:23:36;;;;;;;9.80;5.18;;;;;;;;;;5041574;28;20033;-73
2022/04/22 03:26:02;;;;;;;14.95;6.05;;;;;;;;;;5043480;28;20764;-73
2022/04/22 03:28:29;;;;;;;10.05;5.45;;;;;;;;;;5041474;28;20404;-73
2022/04/22 03:30:55;;;;;;;9.02;4.60;;;;;;;;;;5044079;28;20036;-73
2022/04/22 03:33:21;;;;;;;17.65;4.95;;;;;;;;;;5047793;28;20099;-72
2022/04/22 03:35:50;;;;;;;12.70;4.43;;;;;;;;;;5044883;28;20041;-72
2022/04/22 03:38:20;;;;;;;7.68;4.30;;;;;;;;;;5036992;28;20044;-72
2022/04/22 03:40:47;;;;;;;11.27;4.20;;;;;;;;;;5041588;28;20052;-73
2022/04/22 03:43:13;;;;;;;9.98;5.07;;;;;;;;;;5039308;28;20117;-73
2022/04/22 03:45:39;;;;;;;12.38;4.68;;;;;;;;;;5037508;28;21316;-73
2022/04/22 03:48:09;;;;;;;8.48;4.30;;;;;;;;;;5045534;28;20103;-72
2022/04/22 03:50:36;;;;;;;9.73;5.00;;;;;;;;;;5037978;28;20065;-73
2022/04/22 03:53:02;;;;;;;14.15;5.40;;;;;;;;;;5046576;28;20035;-73
2022/04/22 03:55:28;;;;;;;11.88;5.05;;;;;;;;;;5043714;28;20029;-73
2022/04/22 03:58:13;;;;;;;13.07;5.10;;;;;;;;;;5038575;28;20390;-73
2022/04/22 04:00:42;;;;;;;12.15;4.88;;;;;;;;;;5041735;28;20031;-73
2022/04/22 04:03:12;;;;;;;12.70;4.78;;;;;;;;;;5043367;28;20033;-73
2022/04/22 04:05:38;;;;;;;13.98;4.95;;;;;;;;;;5038509;28;20048;-73
2022/04/22 04:08:05;;;;;;;9.93;4.82;;;;;;;;;;5039883;28;20061;-72
2022/04/22 04:16:03;;;;;;;17.40;5.28;;;;;;;;;;5038677;28;20040;-72
2022/04/22 04:18:30;;;;;;;10.43;5.15;;;;;;;;;;5043792;28;20043;-72
2022/04/22 04:23:41;;;;;;;10.75;4.70;;;;;;;;;;5046460;28;20136;-73
2022/04/22 04:26:07;;;;;;;11.23;5.88;;;;;;;;;;5041247;28;20104;-73
2022/04/22 04:28:34;;;;;;;12.82;5.63;;;;;;;;;;5039584;28;20626;-73
2022/04/22 04:31:01;;;;;;;13.15;6.22;;;;;;;;;;5036821;28;20044;-73
2022/04/22 04:33:28;;;;;;;17.70;6.90;;;;;;;;;;5043155;28;20140;-72
2022/04/22 04:35:54;;;;;;;11.35;5.80;;;;;;;;;;5036951;28;20090;-72
2022/04/22 04:38:20;;;;;;;11.50;5.30;;;;;;;;;;5041370;28;20089;-73
2022/04/22 04:40:46;;;;;;;11.20;5.18;;;;;;;;;;5040291;28;20506;-73
2022/04/22 04:43:12;;;;;;;13.18;6.13;;;;;;;;;;5040932;28;20758;-73
2022/04/22 04:45:39;;;;;;;10.48;5.60;;;;;;;;;;5044111;28;20121;-72
2022/04/22 04:48:05;;;;;;;10.05;5.60;;;;;;;;;;5048324;28;20094;-73
2022/04/22 04:50:31;;;;;;;12.60;6.10;;;;;;;;;;5045039;28;20083;-72
2022/04/22 04:52:57;;;;;;;14.75;6.97;;;;;;;;;;5038798;28;20033;-72
2022/04/22 04:55:23;;;;;;;15.80;6.78;;;;;;;;;;5041135;28;20065;-73
2022/04/22 04:57:49;;;;;;;14.18;8.02;;;;;;;;;;5046507;28;20039;-73
2022/04/22 05:00:16;;;;;;;14.63;7.70;;;;;;;;;;5040504;28;20132;-73
2022/04/22 05:02:43;;;;;;;14.52;9.27;;;;;;;;;;5038491;28;20049;-73
2022/04/22 05:05:10;;;;;;;19.52;8.38;;;;;;;;;;5044101;28;20067;-73
2022/04/22 05:07:47;;;;;;;13.18;6.05;;;;;;;;;;5040095;28;20024;-72
2022/04/22 05:10:13;;;;;;;12.82;5.35;;;;;;;;;;5036049;28;20064;-73
2022/04/22 05:12:39;;;;;;;13.75;5.13;;;;;;;;;;5037396;28;20021;-73
2022/04/22 05:15:08;;;;;;;16.50;5.15;;;;;;;;;;5037195;28;20497;-73
2022/04/22 05:17:34;;;;;;;12.60;4.72;;;;;;;;;;5034636;28;20165;-72
2022/04/22 05:20:00;;;;;;;18.88;5.05;;;;;;;;;;5047083;28;20044;-73
2022/04/22 05:22:26;;;;;;;16.27;4.65;;;;;;;;;;5044540;28;20032;-73
2022/04/22 05:24:52;;;;;;;16.42;4.80;;;;;;;;;;5048334;28;20037;-72
2022/04/22 05:27:18;;;;;;;14.18;5.15;;;;;;;;;;5038698;28;20029;-72
2022/04/22 05:32:38;;;;;;;13.27;5.15;;;;;;;;;;5048112;28;20078;-73
2022/04/22 05:35:05;;;;;;;14.02;5.47;;;;;;;;;;5039508;28;20045;-73
2022/04/22 05:37:46;;;;;;;18.63;6.93;;;;;;;;;;5043402;28;20455;-73
2022/04/22 05:40:13;;;;;;;20.85;8.63;;;;;;;;;;5040176;28;20043;-72
2022/04/22 05:42:39;;;;;;;21.33;6.97;;;;;;;;;;5040443;28;20021;-73
2022/04/22 05:45:08;;;;;;;15.93;6.93;;;;;;;;;;5042825;28;20033;-73
2022/04/22 05:47:35;;;;;;;18.60;8.18;;;;;;;;;;5039199;28;20031;-73
2022/04/22 05:50:01;;;;;;;17.17;7.15;;;;;;;;;;5043970;28;20037;-72
2022/04/22 05:52:27;;;;;;;13.63;6.95;;;;;;;;;;5040104;28;20060;-73
2022/04/22 05:54:58;;;;;;;20.35;7.65;;;;;;;;;;5045345;28;20546;-73
2022/04/22 05:57:24;;;;;;;19.23;8.63;;;;;;;;;;5038277;28;20098;-73
2022/04/22 05:59:51;;;;;;;28.38;8.43;;;;;;;;;;5043520;28;20770;-73
2022/04/22 06:02:18;;;;;;;20.80;8.00;;;;;;;;;;5035794;28;20129;-73
2022/04/22 06:04:44;;;;;;;16.70;7.82;;;;;;;;;;5039106;28;20040;-73
2022/04/22 06:07:10;;;;;;;19.23;7.60;;;;;;;;;;5031239;28;20029;-72
2022/04/22 06:12:21;;;;;;;18.95;6.93;;;;;;;;;;5035290;28;20075;-73
2022/04/22 06:14:47;;;;;;;17.83;6.70;;;;;;;;;;5040742;28;20028;-73
2022/04/22 06:17:13;;;;;;;18.92;7.97;;;;;;;;;;5041747;28;20056;-73
2022/04/22 06:19:39;;;;;;;19.13;7.82;;;;;;;;;;5043587;28;20596;-73
2022/04/22 06:22:05;;;;;;;16.63;7.43;;;;;;;;;;5045469;28;20048;-72
2022/04/22 06:24:31;;;;;;;14.85;8.00;;;;;;;;;;5042025;28;20033;-72
2022/04/22 06:26:57;;;;;;;16.15;8.43;;;;;;;;;;5044095;28;20021;-72
2022/04/22 06:29:23;;;;;;;17.73;8.57;;;;;;;;;;5044994;28;20414;-72
2022/04/22 06:31:49;;;;;;;16.83;8.82;;;;;;;;;;5045736;28;20037;-73
2022/04/22 06:34:15;;;;;;;14.70;9.48;;;;;;;;;;5041840;28;20861;-73
2022/04/22 06:36:41;;;;;;;15.95;8.95;;;;;;;;;;5042868;28;20961;-72
2022/04/22 06:39:08;;;;;;;31.02;8.68;;;;;;;;;;5041811;28;20221;-73
2022/04/22 06:47:04;;;;;;;17.38;7.57;;;;;;;;;;5038259;28;20040;-72
2022/04/22 06:49:31;;;;;;;23.80;7.15;;;;;;;;;;5038624;28;20060;-72
2022/04/22 06:51:57;;;;;;;22.83;7.60;;;;;;;;;;5041039;28;20046;-73
2022/04/22 06:54:23;;;;;;;17.25;7.07;;;;;;;;;;5045058;28;20043;-72
2022/04/22 06:56:49;;;;;;;15.70;6.57;;;;;;;;;;5041814;28;20035;-73
2022/04/22 06:59:19;;;;;;;21.13;6.47;;;;;;;;;;5042375;28;20052;-73
2022/04/22 07:01:46;;;;;;;22.25;7.63;;;;;;;;;;5044107;28;20869;-73
2022/04/22 07:04:12;;;;;;;23.50;7.63;;;;;;;;;;5039552;28;20527;-73
2022/04/22 07:06:39;;;;;;;20.98;8.55;;;;;;;;;;5044573;28;20030;-73
2022/04/22 07:09:05;;;;;;;25.63;8.57;;;;;;;;;;5046227;28;20442;-73
2022/04/22 07:11:32;;;;;;;18.75;7.82;;;;;;;;;;5046375;28;20083;-73
2022/04/22 07:13:59;;;;;;;18.30;8.40;;;;;;;;;;5043891;28;20040;-73
2022/04/22 07:16:25;;;;;;;22.83;8.27;;;;;;;;;;5044223;28;20041;-72
2022/04/22 07:18:55;;;;;;;26.15;9.25;;;;;;;;;;5046588;28;20043;-73
2022/04/22 07:21:22;;;;;;;25.05;7.85;;;;;;;;;;5040883;28;20611;-73
2022/04/22 07:23:48;;;;;;;19.23;8.98;;;;;;;;;;5045532;28;20029;-73
2022/04/22 07:26:16;;;;;;;18.05;8.80;;;;;;;;;;5036018;28;20033;-73
2022/04/22 07:28:44;;;;;;;16.38;7.65;;;;;;;;;;5043157;28;20038;-73
2022/04/22 07:31:10;;;;;;;15.38;7.80;;;;;;;;;;5034914;28;20037;-73
2022/04/22 07:33:36;;;;;;;17.27;9.35;;;;;;;;;;5043262;28;20082;-73
2022/04/22 07:36:02;;;;;;;17.25;9.82;;;;;;;;;;5045016;28;20098;-73
2022/04/22 07:38:28;;;;;;;21.27;8.27;;;;;;;;;;5038983;28;20564;-73
2022/04/22 07:40:54;;;;;;;15.13;7.82;;;;;;;;;;5044914;28;20048;-73
2022/04/22 07:48:53;;;;;;;15.75;8.98;;;;;;;;;;5039540;28;20076;-73
2022/04/22 07:51:19;;;;;;;12.73;7.85;;;;;;;;;;5044228;28;20068;-73
2022/04/22 07:53:45;;;;;;;12.43;7.28;;;;;;;;;;5048984;28;20044;-73
2022/04/22 07:56:11;;;;;;;19.00;8.68;;;;;;;;;;5048716;28;20363;-74
2022/04/22 07:58:37;;;;;;;14.15;7.80;;;;;;;;;;5045849;28;20144;-73
2022/04/22 08:01:03;;;;;;;14.05;7.43;;;;;;;;;;5048528;28;20120;-73
2022/04/22 08:03:31;;;;;;;12.75;7.88;;;;;;;;;;5043270;28;20461;-73
2022/04/22 08:05:57;;;;;;;17.02;7.57;;;;;;;;;;5047419;28;20976;-73
2022/04/22 08:08:24;;;;;;;18.63;8.10;;;;;;;;;;5045964;28;20074;-73
2022/04/22 08:10:50;;;;;;;12.05;7.78;;;;;;;;;;5048177;28;20029;-73
2022/04/22 08:13:16;;;;;;;14.50;7.93;;;;;;;;;;5047649;28;20044;-73
2022/04/22 08:15:42;;;;;;;13.43;7.55;;;;;;;;;;5045497;28;20385;-72
2022/04/22 08:18:08;;;;;;;15.93;8.77;;;;;;;;;;5048620;28;20064;-73
2022/04/22 08:20:35;;;;;;;14.90;8.40;;;;;;;;;;5047454;28;20529;-73
2022/04/22 08:23:01;;;;;;;14.25;7.80;;;;;;;;;;5042752;28;20112;-73
2022/04/22 08:25:28;;;;;;;12.82;7.28;;;;;;;;;;5045048;28;20025;-73
2022/04/22 08:27:54;;;;;;;18.02;9.07;;;;;;;;;;5048339;28;20037;-73
2022/04/22 08:30:20;;;;;;;17.88;8.23;;;;;;;;;;5046019;28;20824;-73
2022/04/22 08:32:46;;;;;;;14.35;7.85;;;;;;;;;;5046950;28;20060;-73
2022/04/22 08:35:12;;;;;;;20.60;8.13;;;;;;;;;;5044716;28;20804;-73
2022/04/22 08:37:38;;;;;;;12.32;7.82;;;;;;;;;;5047360;28;20029;-73
2022/04/22 08:40:08;;;;;;;14.35;7.28;;;;;;;;;;5048414;28;20032;-73
2022/04/22 08:42:35;;;;;;;16.55;7.88;;;;;;;;;;5042659;28;20037;-73
2022/04/22 08:45:02;;;;;;;15.88;7.85;;;;;;;;;;5046429;28;20116;-73
2022/04/22 08:50:19;;;;;;;13.60;8.00;;;;;;;;;;5042901;28;20051;-73
2022/04/22 08:52:56;;;;;;;11.18;7.32;;;;;;;;;;5044469;28;20668;-73
2022/04/22 08:55:23;;;;;;;12.30;7.72;;;;;;;;;;5045274;28;20029;-73
2022/04/22 08:57:49;;;;;;;20.15;9.00;;;;;;;;;;5043597;28;20497;-73
2022/04/22 09:00:16;;;;;;;12.27;7.90;;;;;;;;;;5041635;28;20029;-73
2022/04/22 09:02:42;;;;;;;22.38;9.45;;;;;;;;;;5043754;28;20465;-73
2022/04/22 09:05:09;;;;;;;20.95;8.55;;;;;;;;;;5048108;28;20053;-73
2022/04/22 09:07:35;;;;;;;12.82;8.48;;;;;;;;;;5044139;28;20025;-73
2022/04/22 09:10:01;;;;;;;16.73;8.45;;;;;;;;;;5043542;28;20033;-73
2022/04/22 09:12:28;;;;;;;14.63;8.20;;;;;;;;;;5044406;28;20060;-73
2022/04/22 09:14:54;;;;;;;15.07;8.63;;;;;;;;;;5040071;28;20033;-73
2022/04/22 09:17:25;;;;;;;13.98;7.20;;;;;;;;;;5047130;28;20043;-73
2022/04/22 09:19:51;;;;;;;13.45;7.60;;;;;;;;;;5049101;28;20082;-73
2022/04/22 09:22:27;;;;;;;13.25;8.35;;;;;;;;;;5045528;28;20813;-73
2022/04/22 09:24:53;;;;;;;14.23;8.88;;;;;;;;;;5047596;28;20111;-73
2022/04/22 09:27:20;;;;;;;15.13;7.68;;;;;;;;;;5048022;28;20104;-73
2022/04/22 09:29:53;;;;;;;15.85;7.95;;;;;;;;;;5038401;28;20112;-73
2022/04/22 09:32:26;;;;;;;13.65;8.45;;;;;;;;;;5051547;28;20052;-73
2022/04/22 09:34:53;;;;;;;16.50;8.18;;;;;;;;;;5046998;28;20110;-73
2022/04/22 09:42:53;;;;;;;11.73;7.72;;;;;;;;;;5045138;28;20091;-74
2022/04/22 09:45:19;;;;;;;13.63;9.25;;;;;;;;;;5045389;28;20466;-73
2022/04/22 09:47:59;;;;;;;23.60;9.50;;;;;;;;;;5043903;28;20029;-73
2022/04/22 09:50:41;;;;;;;11.10;8.20;;;;;;;;;;5039335;28;20029;-73
2022/04/22 09:53:07;;;;;;;;;;;;;;;;;;5046469;28;20508;-73
2022/04/22 09:55:46;;;;;;;19.48;8.35;;;;;;;;;;5053436;28;19923;-73
2022/04/22 09:58:12;;;;;;;13.57;8.95;;;;;;;;;;5041229;28;20020;-73
2022/04/22 10:00:39;;;;;;;15.43;8.30;;;;;;;;;;5045341;28;20037;-73
2022/04/22 10:03:09;;;;;;;16.77;8.45;;;;;;;;;;5046362;28;20029;-73
2022/04/22 10:05:36;;;;;;;14.25;8.00;;;;;;;;;;5044656;28;20033;-73
2022/04/22 10:08:03;;;;;;;13.35;7.97;;;;;;;;;;5045917;28;20107;-73
2022/04/22 10:10:31;;;;;;;13.95;7.70;;;;;;;;;;5049910;28;20029;-73
2022/04/22 10:12:58;;;;;;;11.48;6.45;;;;;;;;;;5047192;28;20153;-73
2022/04/22 10:15:27;;;;;;;14.90;7.15;;;;;;;;;;5047320;28;20021;-73
2022/04/22 10:17:53;;;;;;;15.30;6.90;;;;;;;;;;5046701;28;20028;-73
2022/04/22 10:20:20;;;;;;;16.05;6.85;;;;;;;;;;5040374;28;20130;-73
2022/04/22 10:22:49;;;;;;;15.70;6.80;;;;;;;;;;5041512;28;20076;-73
2022/04/22 10:25:15;;;;;;;9.02;5.32;;;;;;;;;;5043875;28;20029;-73
2022/04/22 10:27:42;;;;;;;9.95;5.65;;;;;;;;;;5040963;28;20033;-73
2022/04/22 10:30:10;;;;;;;35.67;6.82;;;;;;;;;;5039142;28;20067;-73
2022/04/22 10:32:38;;;;;;;14.00;6.47;;;;;;;;;;5044011;28;20487;-73
2022/04/22 10:35:05;;;;;;;13.57;6.63;;;;;;;;;;5045954;28;20064;-73
2022/04/22 10:37:33;;;;;;;12.82;6.40;;;;;;;;;;5040162;28;20086;-73
2022/04/22 10:40:00;;;;;;;8.77;5.97;;;;;;;;;;5045553;28;20041;-73
2022/04/22 10:42:30;;;;;;;11.65;7.15;;;;;;;;;;5034526;28;20041;-73
2022/04/22 10:47:46;;;;;;;12.75;7.25;;;;;;;;;;5034792;28;20052;-73
2022/04/22 10:50:27;;;;;;;11.65;6.60;;;;;;;;;;5045255;28;20029;-73
2022/04/22 10:53:02;;;;;;;15.27;6.78;;;;;;;;;;5040970;28;20029;-73
2022/04/22 10:55:30;;;;;;;13.88;7.40;;;;;;;;;;5045308;28;20044;-73
2022/04/22 10:58:14;;;;;;;10.32;7.15;;;;;;;;;;5039096;28;20025;-73
2022/04/22 11:00:44;;;;;;;13.90;7.82;;;;;;;;;;5043028;28;20036;-73
2022/04/22 11:03:15;;;;;;;10.60;6.75;;;;;;;;;;5050145;28;20029;-73
2022/04/22 11:05:46;;;;;;;8.82;6.07;;;;;;;;;;5040201;28;20036;-73
2022/04/22 11:08:24;;;;;;;11.75;7.05;;;;;;;;;;5046426;28;20858;-73
2022/04/22 11:10:53;;;;;;;12.23;6.43;;;;;;;;;;5044592;28;20033;-73
2022/04/22 11:13:28;;;;;;;13.93;6.07;;;;;;;;;;5042114;28;20086;-73
2022/04/22 11:15:57;;;;;;;13.32;7.85;;;;;;;;;;5044895;28;20033;-74
2022/04/22 11:18:23;;;;;;;10.65;7.20;;;;;;;;;;5045718;28;20085;-73
2022/04/22 11:20:54;;;;;;;17.30;6.75;;;;;;;;;;5041397;28;20032;-73
2022/04/22 11:23:20;;;;;;;8.65;5.72;;;;;;;;;;5044236;28;20025;-73
2022/04/22 11:25:46;;;;;;;10.82;5.95;;;;;;;;;;5045328;28;20383;-73
2022/04/22 11:28:14;;;;;;;11.68;5.88;;;;;;;;;;5044688;28;20036;-74
2022/04/22 11:30:40;;;;;;;10.40;5.60;;;;;;;;;;5048433;28;20024;-73
2022/04/22 11:33:08;;;;;;;11.02;4.72;;;;;;;;;;5042851;28;20037;-73
2022/04/22 11:35:34;;;;;;;9.18;5.15;;;;;;;;;;5047003;28;20791;-74
2022/04/22 11:38:01;;;;;;;9.73;5.60;;;;;;;;;;5037566;28;20079;-73
2022/04/22 11:40:27;;;;;;;13.63;6.28;;;;;;;;;;5043470;28;20033;-74
2022/04/22 11:42:58;;;;;;;11.13;6.63;;;;;;;;;;5048370;28;20075;-73
2022/04/22 11:45:24;;;;;;;13.68;6.90;;;;;;;;;;5048446;28;20074;-73
2022/04/22 11:47:50;;;;;;;14.13;5.97;;;;;;;;;;5047131;28;20020;-73
2022/04/22 11:50:20;;;;;;;9.27;5.72;;;;;;;;;;5044309;28;20042;-73
2022/04/22 11:52:54;;;;;;;12.05;6.38;;;;;;;;;;5041436;28;20751;-74
2022/04/22 11:55:21;;;;;;;14.50;6.05;;;;;;;;;;5049133;28;20044;-73
2022/04/22 11:57:48;;;;;;;10.45;6.32;;;;;;;;;;5046242;28;20782;-73
2022/04/22 12:05:47;;;;;;;11.55;6.15;;;;;;;;;;5045019;28;20048;-73
2022/04/22 12:08:15;;;;;;;12.07;6.05;;;;;;;;;;5035373;28;20128;-73
2022/04/22 12:10:43;;;;;;;10.63;6.05;;;;;;;;;;5047554;28;20028;-73
2022/04/22 12:13:12;;;;;;;8.38;4.97;;;;;;;;;;5048294;28;20340;-73
2022/04/22 12:15:39;;;;;;;10.88;5.43;;;;;;;;;;5046528;28;20029;-73
2022/04/22 12:18:06;;;;;;;17.15;6.10;;;;;;;;;;5041846;28;20025;-73
2022/04/22 12:20:32;;;;;;;11.40;6.50;;;;;;;;;;5046527;28;20056;-73
2022/04/22 12:22:59;;;;;;;11.52;6.20;;;;;;;;;;5046115;28;20024;-74
2022/04/22 12:25:25;;;;;;;8.40;5.05;;;;;;;;;;5041444;28;20566;-74
2022/04/22 12:28:13;;;;;;;11.57;5.50;;;;;;;;;;5045896;28;20056;-73
2022/04/22 12:30:40;;;;;;;10.48;5.28;;;;;;;;;;5046678;28;20379;-73
2022/04/22 12:33:06;;;;;;;7.82;4.80;;;;;;;;;;5041719;28;20076;-73
2022/04/22 12:35:32;;;;;;;8.25;4.38;;;;;;;;;;5042644;28;20071;-73
2022/04/22 12:38:02;;;;;;;6.63;4.18;;;;;;;;;;5046609;28;20044;-74
2022/04/22 12:40:28;;;;;;;5.47;3.47;;;;;;;;;;5041263;28;20025;-73
2022/04/22 12:42:54;;;;;;;10.27;3.90;;;;;;;;;;5041323;28;20401;-74
2022/04/22 12:53:43;;;;;;;7.43;4.40;;;;;;;;;;5042800;28;20067;-73
2022/04/22 12:56:09;;;;;;;7.10;3.83;;;;;;;;;;5042971;28;20057;-74
2022/04/22 12:58:54;;;;;;;7.70;3.05;;;;;;;;;;5042865;28;20044;-73
2022/04/22 13:01:30;;;;;;;11.95;2.95;;;;;;;;;;5044738;28;20085;-73
2022/04/22 13:03:59;;;;;;;6.72;3.20;;;;;;;;;;5044795;28;20053;-74
2022/04/22 13:06:44;;;;;;;7.53;3.03;;;;;;;;;;5047755;28;20699;-73
2022/04/22 13:09:12;;;;;;;8.18;2.53;;;;;;;;;;5041114;28;20033;-73
2022/04/22 13:11:39;;;;;;;8.32;2.85;;;;;;;;;;5043270;28;20036;-73
2022/04/22 13:14:06;;;;;;;7.63;2.70;;;;;;;;;;5045934;28;20079;-73
2022/04/22 13:16:32;;;;;;;10.48;3.70;;;;;;;;;;5046971;28;20112;-73
2022/04/22 13:18:58;;;;;;;7.63;3.95;;;;;;;;;;5044896;28;20039;-74
2022/04/22 13:21:25;;;;;;;11.75;4.10;;;;;;;;;;5046802;28;20044;-74
2022/04/22 13:23:51;;;;;;;13.95;4.50;;;;;;;;;;5044554;28;20029;-73
2022/04/22 13:26:17;;;;;;;9.15;5.22;;;;;;;;;;5043017;28;20035;-73
2022/04/22 13:28:43;;;;;;;10.65;4.78;;;;;;;;;;5048150;28;20108;-74
2022/04/22 13:31:10;;;;;;;12.63;5.35;;;;;;;;;;5044382;28;20044;-73
2022/04/22 13:33:36;;;;;;;21.95;6.10;;;;;;;;;;5046666;28;20107;-73
2022/04/22 13:36:02;;;;;;;10.45;4.30;;;;;;;;;;5046431;28;20041;-73
2022/04/22 13:38:29;;;;;;;9.73;4.28;;;;;;;;;;5045310;28;20114;-74
2022/04/22 13:40:55;;;;;;;7.72;3.97;;;;;;;;;;5045932;28;20033;-74
2022/04/22 13:43:21;;;;;;;12.70;3.50;;;;;;;;;;5045026;28;20107;-74
2022/04/22 13:54:02;;;;;;;11.88;3.58;;;;;;;;;;5045272;28;20048;-74
2022/04/22 13:56:28;;;;;;;10.25;3.13;;;;;;;;;;5046725;28;20045;-74
2022/04/22 13:58:54;;;;;;;7.95;3.22;;;;;;;;;;5045966;28;20036;-73
2022/04/22 14:01:20;;;;;;;7.40;2.55;;;;;;;;;;5046989;28;20048;-73
2022/04/22 14:03:46;;;;;;;9.18;3.35;;;;;;;;;;5042773;28;20056;-74
2022/04/22 14:06:12;;;;;;;8.77;3.08;;;;;;;;;;5043461;28;20484;-74
2022/04/22 14:08:38;;;;;;;12.02;3.30;;;;;;;;;;5045162;28;20028;-73
2022/04/22 14:11:07;;;;;;;8.90;3.78;;;;;;;;;;5059251;28;20780;-73
2022/04/22 14:13:33;;;;;;;8.43;3.17;;;;;;;;;;5042136;28;20067;-74
2022/04/22 14:15:59;;;;;;;7.97;3.13;;;;;;;;;;5044245;28;20037;-73
2022/04/22 14:18:30;;;;;;;7.45;3.40;;;;;;;;;;5045731;28;20458;-73
2022/04/22 14:20:56;;;;;;;7.45;3.20;;;;;;;;;;5041865;28;20079;-73
2022/04/22 14:23:22;;;;;;;9.25;3.50;;;;;;;;;;5038484;28;20033;-74
2022/04/22 14:25:48;;;;;;;16.23;2.58;;;;;;;;;;5039739;28;20037;-74
2022/04/22 14:28:15;;;;;;;9.88;2.80;;;;;;;;;;5046065;28;20029;-73
2022/04/22 14:30:42;;;;;;;6.20;2.53;;;;;;;;;;5036131;28;20039;-73
2022/04/22 14:33:08;;;;;;;8.57;3.05;;;;;;;;;;5038892;28;20029;-74
2022/04/22 14:35:34;;;;;;;12.98;3.47;;;;;;;;;;5038775;28;20033;-74
2022/04/22 14:38:00;;;;;;;12.05;3.22;;;;;;;;;;5043381;28;20117;-74
2022/04/22 14:40:26;;;;;;;9.60;3.53;;;;;;;;;;5041301;28;20509;-73
2022/04/22 14:42:53;;;;;;;9.05;3.05;;;;;;;;;;5040629;28;20047;-73
2022/04/22 14:45:20;;;;;;;10.25;2.95;;;;;;;;;;5046115;28;20032;-73
2022/04/22 14:47:46;;;;;;;7.13;2.22;;;;;;;;;;5045279;28;20037;-74
2022/04/22 14:50:14;;;;;;;12.60;3.13;;;;;;;;;;5041255;28;20029;-74
2022/04/22 14:52:40;;;;;;;5.97;2.30;;;;;;;;;;5041619;28;20359;-74
2022/04/22 14:55:06;;;;;;;8.02;2.25;;;;;;;;;;5045659;28;20056;-73
2022/04/22 14:57:33;;;;;;;6.38;2.00;;;;;;;;;;5043418;28;20576;-74
2022/04/22 14:59:59;;;;;;;4.30;1.63;;;;;;;;;;5049261;28;20819;-74
2022/04/22 15:02:25;;;;;;;4.85;1.88;;;;;;;;;;5049499;28;20036;-74
2022/04/22 15:04:54;;;;;;;6.55;1.88;;;;;;;;;;5049359;28;20120;-74
2022/04/22 15:07:21;;;;;;;5.18;1.90;;;;;;;;;;5047001;28;20064;-74
2022/04/22 15:09:47;;;;;;;8.73;2.67;;;;;;;;;;5045334;28;20021;-74
2022/04/22 15:12:13;;;;;;;6.05;2.20;;;;;;;;;;5046536;28;20078;-74
2022/04/22 15:14:40;;;;;;;6.38;2.00;;;;;;;;;;5049186;28;20095;-74
2022/04/22 15:17:06;;;;;;;7.28;2.13;;;;;;;;;;5049962;28;20036;-74
2022/04/22 15:25:01;;;;;;;4.50;1.20;;;;;;;;;;5047612;28;20500;-74
2022/04/22 15:27:30;;;;;;;6.20;1.52;;;;;;;;;;5048473;28;20741;-74
2022/04/22 15:29:57;;;;;;;6.88;1.70;;;;;;;;;;5042994;28;20508;-73
2022/04/22 15:32:23;;;;;;;7.32;1.67;;;;;;;;;;5045202;28;20033;-74
2022/04/22 15:34:49;;;;;;;5.53;1.60;;;;;;;;;;5049192;28;20484;-74
2022/04/22 15:37:15;;;;;;;5.25;1.60;;;;;;;;;;5048476;28;20041;-74
2022/04/22 15:39:41;;;;;;;7.70;2.70;;;;;;;;;;5047321;28;20040;-74
2022/04/22 15:42:07;;;;;;;8.38;2.80;;;;;;;;;;5045465;28;20045;-74
2022/04/22 15:44:33;;;;;;;6.78;2.80;;;;;;;;;;5042638;28;20355;-74
2022/04/22 15:47:02;;;;;;;6.25;2.13;;;;;;;;;;5043389;28;20043;-73
2022/04/22 15:49:29;;;;;;;11.15;2.88;;;;;;;;;;5043238;28;20598;-74
2022/04/22 15:51:55;;;;;;;9.52;3.05;;;;;;;;;;5041001;28;20068;-74